sensor_id;sensor_type;location;lat;lon;timestamp;P1;durP1;ratioP1;P2;durP2;ratioP2
18042;SDS011;9146;48.074;11.968;2022-07-29T00:00:19;1.80;;;1.70;;
18042;SDS011;9146;48.074;11.968;2022-07-29T00:02:47;1.80;;;1.70;;
18042;SDS011;9146;48.074;11.968;2022-07-29T00:05:13;2.13;;;2.03;;
18042;SDS011;9146;48.074;11.968;2022-07-29T00:07:40;3.23;;;2.37;;
18042;SDS011;9146;48.074;11.968;2022-07-29T00:10:09;2.10;;;2.00;;
18042;SDS011;9146;48.074;11.968;2022-07-29T00:12:36;2.00;;;1.90;;
18042;SDS011;9146;48.074;11.968;2022-07-29T00:15:03;1.97;;;1.87;;
18042;SDS011;9146;48.074;11.968;2022-07-29T00:17:31;1.87;;;1.77;;
18042;SDS011;9146;48.074;11.968;2022-07-29T00:19:59;1.97;;;1.87;;
18042;SDS011;9146;48.074;11.968;2022-07-29T00:22:26;1.93;;;1.83;;
18042;SDS011;9146;48.074;11.968;2022-07-29T00:24:53;1.30;;;1.20;;
18042;SDS011;9146;48.074;11.968;2022-07-29T00:27:21;2.13;;;2.03;;
18042;SDS011;9146;48.074;11.968;2022-07-29T00:29:48;1.90;;;1.80;;
18042;SDS011;9146;48.074;11.968;2022-07-29T00:32:15;5.43;;;2.10;;
18042;SDS011;9146;48.074;11.968;2022-07-29T00:34:42;2.20;;;2.10;;
18042;SDS011;9146;48.074;11.968;2022-07-29T00:37:26;2.73;;;2.53;;
18042;SDS011;9146;48.074;11.968;2022-07-29T00:39:53;1.93;;;1.73;;
18042;SDS011;9146;48.074;11.968;2022-07-29T00:42:21;1.90;;;1.80;;
18042;SDS011;9146;48.074;11.968;2022-07-29T00:44:49;1.90;;;1.80;;
18042;SDS011;9146;48.074;11.968;2022-07-29T00:47:16;2.50;;;2.30;;
18042;SDS011;9146;48.074;11.968;2022-07-29T00:49:42;2.33;;;2.23;;
18042;SDS011;9146;48.074;11.968;2022-07-29T00:52:10;1.97;;;1.87;;
18042;SDS011;9146;48.074;11.968;2022-07-29T00:54:38;1.60;;;1.50;;
18042;SDS011;9146;48.074;11.968;2022-07-29T00:57:06;2.37;;;1.90;;
18042;SDS011;9146;48.074;11.968;2022-07-29T00:59:35;1.93;;;1.70;;
18042;SDS011;9146;48.074;11.968;2022-07-29T01:02:02;3.63;;;1.67;;
18042;SDS011;9146;48.074;11.968;2022-07-29T01:04:29;1.97;;;1.83;;
18042;SDS011;9146;48.074;11.968;2022-07-29T01:06:57;1.70;;;1.60;;
18042;SDS011;9146;48.074;11.968;2022-07-29T01:09:26;1.70;;;1.60;;
18042;SDS011;9146;48.074;11.968;2022-07-29T01:11:53;1.80;;;1.70;;
18042;SDS011;9146;48.074;11.968;2022-07-29T01:14:21;2.03;;;1.90;;
18042;SDS011;9146;48.074;11.968;2022-07-29T01:16:51;3.20;;;2.10;;
18042;SDS011;9146;48.074;11.968;2022-07-29T01:19:29;1.60;;;1.50;;
18042;SDS011;9146;48.074;11.968;2022-07-29T01:22:14;1.70;;;1.60;;
18042;SDS011;9146;48.074;11.968;2022-07-29T01:25:02;1.60;;;1.50;;
18042;SDS011;9146;48.074;11.968;2022-07-29T01:27:41;1.60;;;1.50;;
18042;SDS011;9146;48.074;11.968;2022-07-29T01:30:19;2.00;;;1.90;;
18042;SDS011;9146;48.074;11.968;2022-07-29T01:32:50;1.90;;;1.80;;
18042;SDS011;9146;48.074;11.968;2022-07-29T01:35:25;1.60;;;1.50;;
18042;SDS011;9146;48.074;11.968;2022-07-29T01:37:57;1.70;;;1.60;;
18042;SDS011;9146;48.074;11.968;2022-07-29T01:40:29;2.00;;;1.90;;
18042;SDS011;9146;48.074;11.968;2022-07-29T01:43:02;1.80;;;1.70;;
18042;SDS011;9146;48.074;11.968;2022-07-29T01:45:38;2.00;;;1.90;;
18042;SDS011;9146;48.074;11.968;2022-07-29T01:48:10;1.67;;;1.57;;
18042;SDS011;9146;48.074;11.968;2022-07-29T01:50:44;1.80;;;1.70;;
18042;SDS011;9146;48.074;11.968;2022-07-29T01:53:14;2.60;;;2.03;;
18042;SDS011;9146;48.074;11.968;2022-07-29T01:55:53;2.27;;;2.07;;
18042;SDS011;9146;48.074;11.968;2022-07-29T01:58:23;2.27;;;2.07;;
18042;SDS011;9146;48.074;11.968;2022-07-29T02:00:53;1.87;;;1.77;;
18042;SDS011;9146;48.074;11.968;2022-07-29T02:03:22;2.50;;;2.30;;
18042;SDS011;9146;48.074;11.968;2022-07-29T02:05:50;1.97;;;1.87;;
18042;SDS011;9146;48.074;11.968;2022-07-29T02:08:18;2.17;;;1.97;;
18042;SDS011;9146;48.074;11.968;2022-07-29T02:10:46;1.83;;;1.73;;
18042;SDS011;9146;48.074;11.968;2022-07-29T02:13:14;1.90;;;1.80;;
18042;SDS011;9146;48.074;11.968;2022-07-29T02:15:43;2.20;;;1.80;;
18042;SDS011;9146;48.074;11.968;2022-07-29T02:18:13;1.63;;;1.53;;
18042;SDS011;9146;48.074;11.968;2022-07-29T02:20:42;2.23;;;2.13;;
18042;SDS011;9146;48.074;11.968;2022-07-29T02:23:13;2.33;;;2.13;;
18042;SDS011;9146;48.074;11.968;2022-07-29T02:25:44;1.90;;;1.80;;
18042;SDS011;9146;48.074;11.968;2022-07-29T02:28:14;2.20;;;2.00;;
18042;SDS011;9146;48.074;11.968;2022-07-29T02:30:43;2.13;;;2.03;;
18042;SDS011;9146;48.074;11.968;2022-07-29T02:33:14;2.07;;;1.93;;
18042;SDS011;9146;48.074;11.968;2022-07-29T02:35:44;2.67;;;2.47;;
18042;SDS011;9146;48.074;11.968;2022-07-29T02:38:13;2.13;;;1.97;;
18042;SDS011;9146;48.074;11.968;2022-07-29T02:40:59;2.47;;;2.27;;
18042;SDS011;9146;48.074;11.968;2022-07-29T02:43:27;2.10;;;2.00;;
18042;SDS011;9146;48.074;11.968;2022-07-29T02:45:56;2.90;;;2.10;;
18042;SDS011;9146;48.074;11.968;2022-07-29T02:48:27;2.57;;;2.37;;
18042;SDS011;9146;48.074;11.968;2022-07-29T02:51:01;2.47;;;2.30;;
18042;SDS011;9146;48.074;11.968;2022-07-29T02:53:33;2.33;;;2.13;;
18042;SDS011;9146;48.074;11.968;2022-07-29T02:56:04;2.67;;;2.47;;
18042;SDS011;9146;48.074;11.968;2022-07-29T02:58:34;2.30;;;2.20;;
18042;SDS011;9146;48.074;11.968;2022-07-29T03:01:08;2.70;;;2.50;;
18042;SDS011;9146;48.074;11.968;2022-07-29T03:03:46;2.90;;;2.70;;
18042;SDS011;9146;48.074;11.968;2022-07-29T03:06:15;2.70;;;2.50;;
18042;SDS011;9146;48.074;11.968;2022-07-29T03:08:44;2.97;;;2.50;;
18042;SDS011;9146;48.074;11.968;2022-07-29T03:11:12;2.67;;;2.40;;
18042;SDS011;9146;48.074;11.968;2022-07-29T03:13:40;8.10;;;5.33;;
18042;SDS011;9146;48.074;11.968;2022-07-29T03:16:08;5.60;;;5.00;;
18042;SDS011;9146;48.074;11.968;2022-07-29T03:18:35;6.70;;;4.90;;
18042;SDS011;9146;48.074;11.968;2022-07-29T03:21:04;4.90;;;3.63;;
18042;SDS011;9146;48.074;11.968;2022-07-29T03:23:31;3.63;;;3.17;;
18042;SDS011;9146;48.074;11.968;2022-07-29T03:25:58;3.37;;;3.07;;
18042;SDS011;9146;48.074;11.968;2022-07-29T03:28:25;3.40;;;2.97;;
18042;SDS011;9146;48.074;11.968;2022-07-29T03:30:52;2.40;;;2.20;;
18042;SDS011;9146;48.074;11.968;2022-07-29T03:33:19;2.40;;;2.30;;
18042;SDS011;9146;48.074;11.968;2022-07-29T03:35:47;2.47;;;2.30;;
18042;SDS011;9146;48.074;11.968;2022-07-29T03:38:15;2.27;;;2.07;;
18042;SDS011;9146;48.074;11.968;2022-07-29T03:40:43;2.13;;;2.03;;
18042;SDS011;9146;48.074;11.968;2022-07-29T03:43:15;2.30;;;2.20;;
18042;SDS011;9146;48.074;11.968;2022-07-29T03:45:44;1.90;;;1.80;;
18042;SDS011;9146;48.074;11.968;2022-07-29T03:48:15;1.97;;;1.87;;
18042;SDS011;9146;48.074;11.968;2022-07-29T03:50:44;2.30;;;2.10;;
18042;SDS011;9146;48.074;11.968;2022-07-29T03:53:12;2.00;;;1.90;;
18042;SDS011;9146;48.074;11.968;2022-07-29T03:55:41;2.00;;;1.90;;
18042;SDS011;9146;48.074;11.968;2022-07-29T03:58:10;3.10;;;2.00;;
18042;SDS011;9146;48.074;11.968;2022-07-29T04:00:39;2.50;;;2.20;;
18042;SDS011;9146;48.074;11.968;2022-07-29T04:03:08;5.50;;;2.90;;
18042;SDS011;9146;48.074;11.968;2022-07-29T04:05:36;3.30;;;3.00;;
18042;SDS011;9146;48.074;11.968;2022-07-29T04:08:03;3.17;;;2.97;;
18042;SDS011;9146;48.074;11.968;2022-07-29T04:10:30;3.30;;;3.00;;
18042;SDS011;9146;48.074;11.968;2022-07-29T04:12:58;2.90;;;2.70;;
18042;SDS011;9146;48.074;11.968;2022-07-29T04:15:25;2.90;;;2.60;;
18042;SDS011;9146;48.074;11.968;2022-07-29T04:17:53;2.33;;;2.20;;
18042;SDS011;9146;48.074;11.968;2022-07-29T04:20:20;2.50;;;2.30;;
18042;SDS011;9146;48.074;11.968;2022-07-29T04:22:47;3.07;;;2.77;;
18042;SDS011;9146;48.074;11.968;2022-07-29T04:25:14;2.93;;;2.67;;
18042;SDS011;9146;48.074;11.968;2022-07-29T04:27:41;3.13;;;2.87;;
18042;SDS011;9146;48.074;11.968;2022-07-29T04:30:23;3.30;;;2.63;;
18042;SDS011;9146;48.074;11.968;2022-07-29T04:32:50;3.30;;;2.77;;
18042;SDS011;9146;48.074;11.968;2022-07-29T04:35:17;2.83;;;2.63;;
18042;SDS011;9146;48.074;11.968;2022-07-29T04:37:44;2.90;;;2.60;;
18042;SDS011;9146;48.074;11.968;2022-07-29T04:40:11;3.30;;;3.00;;
18042;SDS011;9146;48.074;11.968;2022-07-29T04:42:38;2.60;;;2.40;;
18042;SDS011;9146;48.074;11.968;2022-07-29T04:45:06;2.70;;;2.50;;
18042;SDS011;9146;48.074;11.968;2022-07-29T04:47:34;2.70;;;2.50;;
18042;SDS011;9146;48.074;11.968;2022-07-29T04:50:01;2.90;;;2.67;;
18042;SDS011;9146;48.074;11.968;2022-07-29T04:52:28;2.73;;;2.53;;
18042;SDS011;9146;48.074;11.968;2022-07-29T04:54:55;2.50;;;2.30;;
18042;SDS011;9146;48.074;11.968;2022-07-29T04:57:22;3.60;;;3.33;;
18042;SDS011;9146;48.074;11.968;2022-07-29T04:59:49;3.13;;;2.93;;
18042;SDS011;9146;48.074;11.968;2022-07-29T05:02:16;2.80;;;2.60;;
18042;SDS011;9146;48.074;11.968;2022-07-29T05:04:44;2.93;;;2.73;;
18042;SDS011;9146;48.074;11.968;2022-07-29T05:07:11;3.83;;;3.37;;
18042;SDS011;9146;48.074;11.968;2022-07-29T05:09:38;2.93;;;2.73;;
18042;SDS011;9146;48.074;11.968;2022-07-29T05:12:05;3.63;;;2.77;;
18042;SDS011;9146;48.074;11.968;2022-07-29T05:14:33;3.57;;;3.27;;
18042;SDS011;9146;48.074;11.968;2022-07-29T05:17:00;5.13;;;3.00;;
18042;SDS011;9146;48.074;11.968;2022-07-29T05:19:27;3.03;;;2.80;;
18042;SDS011;9146;48.074;11.968;2022-07-29T05:21:55;3.03;;;2.80;;
18042;SDS011;9146;48.074;11.968;2022-07-29T05:24:22;3.10;;;2.80;;
18042;SDS011;9146;48.074;11.968;2022-07-29T05:26:49;3.00;;;2.80;;
18042;SDS011;9146;48.074;11.968;2022-07-29T05:29:16;2.97;;;2.77;;
18042;SDS011;9146;48.074;11.968;2022-07-29T05:31:43;3.20;;;2.90;;
18042;SDS011;9146;48.074;11.968;2022-07-29T05:34:10;3.13;;;2.93;;
18042;SDS011;9146;48.074;11.968;2022-07-29T05:36:36;3.30;;;3.03;;
18042;SDS011;9146;48.074;11.968;2022-07-29T05:39:05;3.50;;;3.20;;
18042;SDS011;9146;48.074;11.968;2022-07-29T05:41:32;8.07;;;3.60;;
18042;SDS011;9146;48.074;11.968;2022-07-29T05:43:59;3.40;;;3.00;;
18042;SDS011;9146;48.074;11.968;2022-07-29T05:46:26;3.13;;;2.93;;
18042;SDS011;9146;48.074;11.968;2022-07-29T05:48:53;3.40;;;2.87;;
18042;SDS011;9146;48.074;11.968;2022-07-29T05:51:20;3.03;;;2.80;;
18042;SDS011;9146;48.074;11.968;2022-07-29T05:53:47;3.23;;;3.03;;
18042;SDS011;9146;48.074;11.968;2022-07-29T05:56:15;3.03;;;2.60;;
18042;SDS011;9146;48.074;11.968;2022-07-29T05:58:42;9.43;;;3.07;;
18042;SDS011;9146;48.074;11.968;2022-07-29T06:01:09;2.90;;;2.70;;
18042;SDS011;9146;48.074;11.968;2022-07-29T06:03:36;3.17;;;2.77;;
18042;SDS011;9146;48.074;11.968;2022-07-29T06:06:03;4.67;;;2.47;;
18042;SDS011;9146;48.074;11.968;2022-07-29T06:08:32;2.83;;;2.63;;
18042;SDS011;9146;48.074;11.968;2022-07-29T06:10:59;4.80;;;2.80;;
18042;SDS011;9146;48.074;11.968;2022-07-29T06:13:28;3.10;;;2.83;;
18042;SDS011;9146;48.074;11.968;2022-07-29T06:15:55;3.40;;;2.70;;
18042;SDS011;9146;48.074;11.968;2022-07-29T06:18:22;2.73;;;2.53;;
18042;SDS011;9146;48.074;11.968;2022-07-29T06:20:49;2.50;;;2.30;;
18042;SDS011;9146;48.074;11.968;2022-07-29T06:23:17;2.50;;;2.30;;
18042;SDS011;9146;48.074;11.968;2022-07-29T06:25:44;5.70;;;2.90;;
18042;SDS011;9146;48.074;11.968;2022-07-29T06:28:11;3.00;;;2.73;;
18042;SDS011;9146;48.074;11.968;2022-07-29T06:30:39;2.60;;;2.40;;
18042;SDS011;9146;48.074;11.968;2022-07-29T06:33:06;2.50;;;2.40;;
18042;SDS011;9146;48.074;11.968;2022-07-29T06:35:33;3.43;;;3.13;;
18042;SDS011;9146;48.074;11.968;2022-07-29T06:38:01;2.93;;;2.63;;
18042;SDS011;9146;48.074;11.968;2022-07-29T06:40:29;2.50;;;2.30;;
18042;SDS011;9146;48.074;11.968;2022-07-29T06:43:13;3.03;;;2.83;;
18042;SDS011;9146;48.074;11.968;2022-07-29T06:45:42;3.00;;;2.70;;
18042;SDS011;9146;48.074;11.968;2022-07-29T06:48:09;3.90;;;2.73;;
18042;SDS011;9146;48.074;11.968;2022-07-29T06:50:35;4.63;;;2.60;;
18042;SDS011;9146;48.074;11.968;2022-07-29T06:53:03;2.60;;;2.40;;
18042;SDS011;9146;48.074;11.968;2022-07-29T06:55:30;4.00;;;2.80;;
18042;SDS011;9146;48.074;11.968;2022-07-29T06:57:57;3.23;;;2.90;;
18042;SDS011;9146;48.074;11.968;2022-07-29T07:00:24;3.33;;;3.00;;
18042;SDS011;9146;48.074;11.968;2022-07-29T07:02:53;3.60;;;2.83;;
18042;SDS011;9146;48.074;11.968;2022-07-29T07:05:20;2.30;;;2.20;;
18042;SDS011;9146;48.074;11.968;2022-07-29T07:07:46;2.87;;;2.60;;
18042;SDS011;9146;48.074;11.968;2022-07-29T07:10:13;2.57;;;2.37;;
18042;SDS011;9146;48.074;11.968;2022-07-29T07:12:40;2.40;;;2.20;;
18042;SDS011;9146;48.074;11.968;2022-07-29T07:15:08;2.20;;;2.10;;
18042;SDS011;9146;48.074;11.968;2022-07-29T07:17:35;2.40;;;2.20;;
18042;SDS011;9146;48.074;11.968;2022-07-29T07:20:04;3.93;;;2.30;;
18042;SDS011;9146;48.074;11.968;2022-07-29T07:22:32;2.87;;;2.57;;
18042;SDS011;9146;48.074;11.968;2022-07-29T07:24:59;4.43;;;2.53;;
18042;SDS011;9146;48.074;11.968;2022-07-29T07:27:26;3.20;;;2.90;;
18042;SDS011;9146;48.074;11.968;2022-07-29T07:29:53;2.60;;;2.40;;
18042;SDS011;9146;48.074;11.968;2022-07-29T07:32:20;3.00;;;2.57;;
18042;SDS011;9146;48.074;11.968;2022-07-29T07:34:47;3.77;;;2.70;;
18042;SDS011;9146;48.074;11.968;2022-07-29T07:37:15;2.37;;;2.17;;
18042;SDS011;9146;48.074;11.968;2022-07-29T07:39:44;2.47;;;2.27;;
18042;SDS011;9146;48.074;11.968;2022-07-29T07:42:11;2.27;;;2.17;;
18042;SDS011;9146;48.074;11.968;2022-07-29T07:44:38;3.90;;;2.83;;
18042;SDS011;9146;48.074;11.968;2022-07-29T07:47:05;2.37;;;2.17;;
18042;SDS011;9146;48.074;11.968;2022-07-29T07:49:32;2.60;;;2.40;;
18042;SDS011;9146;48.074;11.968;2022-07-29T07:52:00;2.60;;;2.33;;
18042;SDS011;9146;48.074;11.968;2022-07-29T07:54:28;2.43;;;2.23;;
18042;SDS011;9146;48.074;11.968;2022-07-29T07:56:55;2.50;;;2.30;;
18042;SDS011;9146;48.074;11.968;2022-07-29T07:59:23;3.07;;;2.20;;
18042;SDS011;9146;48.074;11.968;2022-07-29T08:01:50;2.40;;;2.20;;
18042;SDS011;9146;48.074;11.968;2022-07-29T08:04:17;2.63;;;2.20;;
18042;SDS011;9146;48.074;11.968;2022-07-29T08:06:44;2.53;;;2.20;;
18042;SDS011;9146;48.074;11.968;2022-07-29T08:09:11;2.40;;;2.10;;
18042;SDS011;9146;48.074;11.968;2022-07-29T08:11:39;1.80;;;1.70;;
18042;SDS011;9146;48.074;11.968;2022-07-29T08:14:06;2.57;;;2.40;;
18042;SDS011;9146;48.074;11.968;2022-07-29T08:16:33;2.10;;;2.00;;
18042;SDS011;9146;48.074;11.968;2022-07-29T08:19:00;2.20;;;2.00;;
18042;SDS011;9146;48.074;11.968;2022-07-29T08:21:27;2.00;;;1.90;;
18042;SDS011;9146;48.074;11.968;2022-07-29T08:23:54;3.63;;;2.30;;
18042;SDS011;9146;48.074;11.968;2022-07-29T08:26:42;2.27;;;2.07;;
18042;SDS011;9146;48.074;11.968;2022-07-29T08:29:10;3.00;;;2.50;;
18042;SDS011;9146;48.074;11.968;2022-07-29T08:31:37;2.60;;;2.40;;
18042;SDS011;9146;48.074;11.968;2022-07-29T08:34:05;2.37;;;2.17;;
18042;SDS011;9146;48.074;11.968;2022-07-29T08:36:33;2.57;;;2.37;;
18042;SDS011;9146;48.074;11.968;2022-07-29T08:39:00;2.30;;;2.10;;
18042;SDS011;9146;48.074;11.968;2022-07-29T08:41:29;2.03;;;1.90;;
18042;SDS011;9146;48.074;11.968;2022-07-29T08:43:57;1.63;;;1.53;;
18042;SDS011;9146;48.074;11.968;2022-07-29T08:46:24;2.07;;;1.97;;
18042;SDS011;9146;48.074;11.968;2022-07-29T08:48:51;2.40;;;2.30;;
18042;SDS011;9146;48.074;11.968;2022-07-29T08:51:19;2.47;;;2.27;;
18042;SDS011;9146;48.074;11.968;2022-07-29T08:53:48;2.30;;;2.20;;
18042;SDS011;9146;48.074;11.968;2022-07-29T08:56:16;2.40;;;2.20;;
18042;SDS011;9146;48.074;11.968;2022-07-29T08:58:44;2.27;;;2.07;;
18042;SDS011;9146;48.074;11.968;2022-07-29T09:01:14;2.33;;;1.90;;
18042;SDS011;9146;48.074;11.968;2022-07-29T09:03:43;2.30;;;2.10;;
18042;SDS011;9146;48.074;11.968;2022-07-29T09:06:12;2.57;;;2.37;;
18042;SDS011;9146;48.074;11.968;2022-07-29T09:08:40;1.93;;;1.83;;
18042;SDS011;9146;48.074;11.968;2022-07-29T09:11:08;6.50;;;2.53;;
18042;SDS011;9146;48.074;11.968;2022-07-29T09:13:36;3.43;;;2.33;;
18042;SDS011;9146;48.074;11.968;2022-07-29T09:16:04;2.20;;;2.00;;
18042;SDS011;9146;48.074;11.968;2022-07-29T09:18:36;2.00;;;1.90;;
18042;SDS011;9146;48.074;11.968;2022-07-29T09:21:05;2.20;;;2.10;;
18042;SDS011;9146;48.074;11.968;2022-07-29T09:23:59;4.03;;;2.47;;
18042;SDS011;9146;48.074;11.968;2022-07-29T09:26:32;3.57;;;3.23;;
18042;SDS011;9146;48.074;11.968;2022-07-29T09:29:01;3.93;;;2.87;;
18042;SDS011;9146;48.074;11.968;2022-07-29T09:31:36;19.60;;;13.10;;
18042;SDS011;9146;48.074;11.968;2022-07-29T09:34:05;16.30;;;11.17;;
18042;SDS011;9146;48.074;11.968;2022-07-29T09:36:38;8.70;;;6.13;;
18042;SDS011;9146;48.074;11.968;2022-07-29T09:39:06;5.53;;;5.00;;
18042;SDS011;9146;48.074;11.968;2022-07-29T09:41:46;4.03;;;3.10;;
18042;SDS011;9146;48.074;11.968;2022-07-29T09:44:15;1.90;;;1.80;;
18042;SDS011;9146;48.074;11.968;2022-07-29T09:46:52;2.37;;;2.27;;
18042;SDS011;9146;48.074;11.968;2022-07-29T09:49:22;2.37;;;2.17;;
18042;SDS011;9146;48.074;11.968;2022-07-29T09:51:58;2.00;;;1.90;;
18042;SDS011;9146;48.074;11.968;2022-07-29T09:54:27;2.23;;;2.13;;
18042;SDS011;9146;48.074;11.968;2022-07-29T09:56:59;2.57;;;2.47;;
18042;SDS011;9146;48.074;11.968;2022-07-29T09:59:26;2.70;;;2.50;;
18042;SDS011;9146;48.074;11.968;2022-07-29T10:01:53;3.70;;;2.67;;
18042;SDS011;9146;48.074;11.968;2022-07-29T10:04:23;2.63;;;2.43;;
18042;SDS011;9146;48.074;11.968;2022-07-29T10:06:56;2.57;;;2.37;;
18042;SDS011;9146;48.074;11.968;2022-07-29T10:09:24;2.40;;;2.30;;
18042;SDS011;9146;48.074;11.968;2022-07-29T10:12:05;2.53;;;2.33;;
18042;SDS011;9146;48.074;11.968;2022-07-29T10:14:34;2.67;;;2.50;;
18042;SDS011;9146;48.074;11.968;2022-07-29T10:17:02;5.23;;;2.30;;
18042;SDS011;9146;48.074;11.968;2022-07-29T10:19:32;2.50;;;2.40;;
18042;SDS011;9146;48.074;11.968;2022-07-29T10:22:02;5.30;;;2.30;;
18042;SDS011;9146;48.074;11.968;2022-07-29T10:24:31;2.67;;;2.47;;
18042;SDS011;9146;48.074;11.968;2022-07-29T10:26:59;3.50;;;3.20;;
18042;SDS011;9146;48.074;11.968;2022-07-29T10:29:27;2.67;;;2.47;;
18042;SDS011;9146;48.074;11.968;2022-07-29T10:37:49;2.70;;;2.50;;
18042;SDS011;9146;48.074;11.968;2022-07-29T10:40:32;2.40;;;2.20;;
18042;SDS011;9146;48.074;11.968;2022-07-29T10:43:25;2.93;;;2.03;;
18042;SDS011;9146;48.074;11.968;2022-07-29T10:45:55;2.50;;;2.30;;
18042;SDS011;9146;48.074;11.968;2022-07-29T10:48:24;3.30;;;2.53;;
18042;SDS011;9146;48.074;11.968;2022-07-29T10:50:56;2.83;;;2.10;;
18042;SDS011;9146;48.074;11.968;2022-07-29T10:53:45;2.77;;;2.57;;
18042;SDS011;9146;48.074;11.968;2022-07-29T10:56:23;2.17;;;2.07;;
18042;SDS011;9146;48.074;11.968;2022-07-29T11:01:53;2.80;;;2.60;;
18042;SDS011;9146;48.074;11.968;2022-07-29T11:07:25;2.30;;;2.13;;
18042;SDS011;9146;48.074;11.968;2022-07-29T11:12:47;2.87;;;2.67;;
18042;SDS011;9146;48.074;11.968;2022-07-29T11:15:16;2.67;;;2.47;;
18042;SDS011;9146;48.074;11.968;2022-07-29T11:18:05;3.27;;;2.40;;
18042;SDS011;9146;48.074;11.968;2022-07-29T11:20:34;2.90;;;2.63;;
18042;SDS011;9146;48.074;11.968;2022-07-29T11:23:24;3.10;;;2.37;;
18042;SDS011;9146;48.074;11.968;2022-07-29T11:26:14;3.10;;;2.90;;
18042;SDS011;9146;48.074;11.968;2022-07-29T11:28:52;2.93;;;2.73;;
18042;SDS011;9146;48.074;11.968;2022-07-29T11:31:32;3.27;;;3.07;;
18042;SDS011;9146;48.074;11.968;2022-07-29T11:39:43;2.80;;;2.60;;
18042;SDS011;9146;48.074;11.968;2022-07-29T11:45:05;2.80;;;2.60;;
18042;SDS011;9146;48.074;11.968;2022-07-29T11:47:34;3.37;;;2.43;;
18042;SDS011;9146;48.074;11.968;2022-07-29T11:50:03;2.80;;;2.60;;
18042;SDS011;9146;48.074;11.968;2022-07-29T11:52:32;2.80;;;2.60;;
18042;SDS011;9146;48.074;11.968;2022-07-29T11:55:04;3.93;;;2.70;;
18042;SDS011;9146;48.074;11.968;2022-07-29T11:57:33;2.80;;;2.60;;
18042;SDS011;9146;48.074;11.968;2022-07-29T12:00:03;4.30;;;3.47;;
18042;SDS011;9146;48.074;11.968;2022-07-29T12:02:39;2.47;;;2.27;;
18042;SDS011;9146;48.074;11.968;2022-07-29T12:05:07;3.13;;;2.60;;
18042;SDS011;9146;48.074;11.968;2022-07-29T12:07:36;2.47;;;2.37;;
18042;SDS011;9146;48.074;11.968;2022-07-29T12:10:06;3.83;;;2.67;;
18042;SDS011;9146;48.074;11.968;2022-07-29T12:12:34;3.20;;;2.90;;
18042;SDS011;9146;48.074;11.968;2022-07-29T12:15:11;2.90;;;2.67;;
18042;SDS011;9146;48.074;11.968;2022-07-29T12:17:39;3.57;;;2.30;;
18042;SDS011;9146;48.074;11.968;2022-07-29T12:20:06;2.43;;;2.23;;
18042;SDS011;9146;48.074;11.968;2022-07-29T12:22:34;2.97;;;2.77;;
18042;SDS011;9146;48.074;11.968;2022-07-29T12:25:06;3.00;;;2.80;;
18042;SDS011;9146;48.074;11.968;2022-07-29T12:27:35;3.40;;;2.87;;
18042;SDS011;9146;48.074;11.968;2022-07-29T12:30:04;2.77;;;2.60;;
18042;SDS011;9146;48.074;11.968;2022-07-29T12:32:33;2.30;;;2.20;;
18042;SDS011;9146;48.074;11.968;2022-07-29T12:35:02;2.63;;;2.43;;
18042;SDS011;9146;48.074;11.968;2022-07-29T12:37:30;4.63;;;2.13;;
18042;SDS011;9146;48.074;11.968;2022-07-29T12:39:59;2.27;;;2.13;;
18042;SDS011;9146;48.074;11.968;2022-07-29T12:42:28;3.03;;;2.73;;
18042;SDS011;9146;48.074;11.968;2022-07-29T12:44:55;3.50;;;2.00;;
18042;SDS011;9146;48.074;11.968;2022-07-29T12:47:22;2.40;;;2.20;;
18042;SDS011;9146;48.074;11.968;2022-07-29T12:49:50;2.83;;;2.27;;
18042;SDS011;9146;48.074;11.968;2022-07-29T12:52:33;7.10;;;2.50;;
18042;SDS011;9146;48.074;11.968;2022-07-29T12:55:01;5.30;;;2.67;;
18042;SDS011;9146;48.074;11.968;2022-07-29T12:57:30;3.00;;;2.70;;
18042;SDS011;9146;48.074;11.968;2022-07-29T13:00:01;2.77;;;2.57;;
18042;SDS011;9146;48.074;11.968;2022-07-29T13:02:30;2.23;;;2.13;;
18042;SDS011;9146;48.074;11.968;2022-07-29T13:04:58;4.60;;;2.43;;
18042;SDS011;9146;48.074;11.968;2022-07-29T13:07:27;2.10;;;2.00;;
18042;SDS011;9146;48.074;11.968;2022-07-29T13:09:58;2.87;;;2.37;;
18042;SDS011;9146;48.074;11.968;2022-07-29T13:12:39;2.47;;;2.27;;
18042;SDS011;9146;48.074;11.968;2022-07-29T13:15:26;2.20;;;2.00;;
18042;SDS011;9146;48.074;11.968;2022-07-29T13:17:53;2.60;;;1.90;;
18042;SDS011;9146;48.074;11.968;2022-07-29T13:20:23;2.30;;;2.10;;
18042;SDS011;9146;48.074;11.968;2022-07-29T13:22:52;2.20;;;2.03;;
18042;SDS011;9146;48.074;11.968;2022-07-29T13:25:24;3.10;;;2.30;;
18042;SDS011;9146;48.074;11.968;2022-07-29T13:27:53;2.50;;;1.83;;
18042;SDS011;9146;48.074;11.968;2022-07-29T13:30:21;3.37;;;2.40;;
18042;SDS011;9146;48.074;11.968;2022-07-29T13:32:51;2.93;;;2.20;;
18042;SDS011;9146;48.074;11.968;2022-07-29T13:35:20;2.40;;;2.20;;
18042;SDS011;9146;48.074;11.968;2022-07-29T13:37:47;2.23;;;2.10;;
18042;SDS011;9146;48.074;11.968;2022-07-29T13:40:14;2.63;;;2.43;;
18042;SDS011;9146;48.074;11.968;2022-07-29T13:42:41;2.00;;;1.90;;
18042;SDS011;9146;48.074;11.968;2022-07-29T13:45:10;2.37;;;2.23;;
18042;SDS011;9146;48.074;11.968;2022-07-29T13:47:38;2.40;;;2.30;;
18042;SDS011;9146;48.074;11.968;2022-07-29T13:50:06;2.43;;;2.33;;
18042;SDS011;9146;48.074;11.968;2022-07-29T13:52:35;3.53;;;2.60;;
18042;SDS011;9146;48.074;11.968;2022-07-29T13:55:04;2.07;;;1.97;;
18042;SDS011;9146;48.074;11.968;2022-07-29T13:57:32;2.43;;;2.23;;
18042;SDS011;9146;48.074;11.968;2022-07-29T13:59:59;2.63;;;2.43;;
18042;SDS011;9146;48.074;11.968;2022-07-29T14:02:27;3.10;;;2.67;;
18042;SDS011;9146;48.074;11.968;2022-07-29T14:04:54;3.63;;;2.20;;
18042;SDS011;9146;48.074;11.968;2022-07-29T14:07:22;2.33;;;2.10;;
18042;SDS011;9146;48.074;11.968;2022-07-29T14:09:49;2.60;;;2.40;;
18042;SDS011;9146;48.074;11.968;2022-07-29T14:12:16;2.67;;;2.20;;
18042;SDS011;9146;48.074;11.968;2022-07-29T14:14:44;3.97;;;2.70;;
18042;SDS011;9146;48.074;11.968;2022-07-29T14:17:11;2.10;;;2.00;;
18042;SDS011;9146;48.074;11.968;2022-07-29T14:19:39;3.37;;;2.73;;
18042;SDS011;9146;48.074;11.968;2022-07-29T14:22:07;2.63;;;2.43;;
18042;SDS011;9146;48.074;11.968;2022-07-29T14:24:36;3.60;;;2.80;;
18042;SDS011;9146;48.074;11.968;2022-07-29T14:27:03;3.03;;;2.43;;
18042;SDS011;9146;48.074;11.968;2022-07-29T14:29:31;2.50;;;2.30;;
18042;SDS011;9146;48.074;11.968;2022-07-29T14:31:58;2.77;;;2.57;;
18042;SDS011;9146;48.074;11.968;2022-07-29T14:34:25;2.43;;;2.33;;
18042;SDS011;9146;48.074;11.968;2022-07-29T14:36:54;8.77;;;3.10;;
18042;SDS011;9146;48.074;11.968;2022-07-29T14:39:21;3.27;;;2.87;;
18042;SDS011;9146;48.074;11.968;2022-07-29T14:41:49;4.00;;;3.00;;
18042;SDS011;9146;48.074;11.968;2022-07-29T14:44:16;4.93;;;2.60;;
18042;SDS011;9146;48.074;11.968;2022-07-29T14:46:43;6.23;;;2.67;;
18042;SDS011;9146;48.074;11.968;2022-07-29T14:49:10;3.60;;;2.33;;
18042;SDS011;9146;48.074;11.968;2022-07-29T14:51:38;3.53;;;2.73;;
18042;SDS011;9146;48.074;11.968;2022-07-29T14:54:06;3.40;;;2.67;;
18042;SDS011;9146;48.074;11.968;2022-07-29T14:56:33;4.50;;;2.73;;
18042;SDS011;9146;48.074;11.968;2022-07-29T14:59:00;2.50;;;2.30;;
18042;SDS011;9146;48.074;11.968;2022-07-29T15:01:27;3.93;;;2.73;;
18042;SDS011;9146;48.074;11.968;2022-07-29T15:03:54;3.80;;;2.50;;
18042;SDS011;9146;48.074;11.968;2022-07-29T15:06:21;6.20;;;2.60;;
18042;SDS011;9146;48.074;11.968;2022-07-29T15:08:48;2.47;;;2.37;;
18042;SDS011;9146;48.074;11.968;2022-07-29T15:11:17;3.07;;;2.70;;
18042;SDS011;9146;48.074;11.968;2022-07-29T15:13:44;2.83;;;2.63;;
18042;SDS011;9146;48.074;11.968;2022-07-29T15:16:11;2.60;;;2.40;;
18042;SDS011;9146;48.074;11.968;2022-07-29T15:18:38;2.57;;;2.37;;
18042;SDS011;9146;48.074;11.968;2022-07-29T15:21:05;3.47;;;2.63;;
18042;SDS011;9146;48.074;11.968;2022-07-29T15:23:33;3.27;;;3.00;;